sensor_id;sensor_type;location;lat;lon;timestamp;temperature;humidity
16814;DHT22;8524;57.650;11.926;2023-04-25T00:01:50;10.40;99.90
16814;DHT22;8524;57.650;11.926;2023-04-25T00:04:18;10.40;99.90
16814;DHT22;8524;57.650;11.926;2023-04-25T00:06:47;10.30;99.90
16814;DHT22;8524;57.650;11.926;2023-04-25T00:09:14;10.30;99.90
16814;DHT22;8524;57.650;11.926;2023-04-25T00:11:41;10.20;99.90
16814;DHT22;8524;57.650;11.926;2023-04-25T00:14:08;10.20;99.90
16814;DHT22;8524;57.650;11.926;2023-04-25T00:16:35;10.20;99.90
16814;DHT22;8524;57.650;11.926;2023-04-25T00:19:04;10.30;99.90
16814;DHT22;8524;57.650;11.926;2023-04-25T00:21:31;10.20;99.90
16814;DHT22;8524;57.650;11.926;2023-04-25T00:23:58;10.20;99.90
16814;DHT22;8524;57.650;11.926;2023-04-25T00:26:25;10.10;99.90
16814;DHT22;8524;57.650;11.926;2023-04-25T00:28:52;10.10;99.90
16814;DHT22;8524;57.650;11.926;2023-04-25T00:31:19;10.10;99.90
16814;DHT22;8524;57.650;11.926;2023-04-25T00:33:46;10.10;99.90
16814;DHT22;8524;57.650;11.926;2023-04-25T00:36:14;10.00;99.90
16814;DHT22;8524;57.650;11.926;2023-04-25T00:38:42;10.00;99.90
16814;DHT22;8524;57.650;11.926;2023-04-25T00:41:09;10.00;99.90
16814;DHT22;8524;57.650;11.926;2023-04-25T00:43:37;10.00;99.90
16814;DHT22;8524;57.650;11.926;2023-04-25T00:46:04;10.00;99.90
16814;DHT22;8524;57.650;11.926;2023-04-25T00:48:31;10.00;99.90
16814;DHT22;8524;57.650;11.926;2023-04-25T00:50:59;9.90;99.90
16814;DHT22;8524;57.650;11.926;2023-04-25T00:53:28;9.80;99.90
16814;DHT22;8524;57.650;11.926;2023-04-25T00:55:55;9.90;99.90
16814;DHT22;8524;57.650;11.926;2023-04-25T00:58:22;9.80;99.90
16814;DHT22;8524;57.650;11.926;2023-04-25T01:00:51;9.80;99.90
16814;DHT22;8524;57.650;11.926;2023-04-25T01:03:18;9.90;99.90
16814;DHT22;8524;57.650;11.926;2023-04-25T01:05:46;9.80;99.90
16814;DHT22;8524;57.650;11.926;2023-04-25T01:08:14;10.00;99.90
16814;DHT22;8524;57.650;11.926;2023-04-25T01:10:42;9.90;99.90
16814;DHT22;8524;57.650;11.926;2023-04-25T01:13:09;9.90;99.90
16814;DHT22;8524;57.650;11.926;2023-04-25T01:15:36;9.80;99.90
16814;DHT22;8524;57.650;11.926;2023-04-25T01:18:04;9.80;99.90
16814;DHT22;8524;57.650;11.926;2023-04-25T01:20:32;9.80;99.90
16814;DHT22;8524;57.650;11.926;2023-04-25T01:23:01;9.80;99.90
16814;DHT22;8524;57.650;11.926;2023-04-25T01:25:29;9.80;99.90
16814;DHT22;8524;57.650;11.926;2023-04-25T01:27:57;9.80;99.90
16814;DHT22;8524;57.650;11.926;2023-04-25T01:30:25;9.80;99.90
16814;DHT22;8524;57.650;11.926;2023-04-25T01:32:54;9.80;99.90
16814;DHT22;8524;57.650;11.926;2023-04-25T01:35:22;9.80;99.90
16814;DHT22;8524;57.650;11.926;2023-04-25T01:37:51;9.80;99.90
16814;DHT22;8524;57.650;11.926;2023-04-25T01:40:21;9.80;99.90
16814;DHT22;8524;57.650;11.926;2023-04-25T01:42:48;9.80;99.90
16814;DHT22;8524;57.650;11.926;2023-04-25T01:45:16;9.80;99.90
16814;DHT22;8524;57.650;11.926;2023-04-25T01:47:44;9.80;99.90
16814;DHT22;8524;57.650;11.926;2023-04-25T01:50:15;9.80;99.90
16814;DHT22;8524;57.650;11.926;2023-04-25T01:52:42;9.70;99.90
16814;DHT22;8524;57.650;11.926;2023-04-25T01:55:10;9.70;99.90
16814;DHT22;8524;57.650;11.926;2023-04-25T01:57:38;9.70;99.90
16814;DHT22;8524;57.650;11.926;2023-04-25T02:00:07;9.70;99.90
16814;DHT22;8524;57.650;11.926;2023-04-25T02:02:34;9.70;99.90
16814;DHT22;8524;57.650;11.926;2023-04-25T02:05:01;9.60;99.90
16814;DHT22;8524;57.650;11.926;2023-04-25T02:07:29;9.60;99.90
16814;DHT22;8524;57.650;11.926;2023-04-25T02:09:55;9.60;99.90
16814;DHT22;8524;57.650;11.926;2023-04-25T02:12:23;9.60;99.90
16814;DHT22;8524;57.650;11.926;2023-04-25T02:14:53;9.60;99.90
16814;DHT22;8524;57.650;11.926;2023-04-25T02:17:20;9.60;99.90
16814;DHT22;8524;57.650;11.926;2023-04-25T02:19:47;9.60;99.90
16814;DHT22;8524;57.650;11.926;2023-04-25T02:22:14;9.60;99.90
16814;DHT22;8524;57.650;11.926;2023-04-25T02:24:41;9.60;99.90
16814;DHT22;8524;57.650;11.926;2023-04-25T02:27:08;9.60;99.90
16814;DHT22;8524;57.650;11.926;2023-04-25T02:29:35;9.60;99.90
16814;DHT22;8524;57.650;11.926;2023-04-25T02:32:04;9.60;99.90
16814;DHT22;8524;57.650;11.926;2023-04-25T02:34:31;9.60;99.90
16814;DHT22;8524;57.650;11.926;2023-04-25T02:36:58;9.60;99.90
16814;DHT22;8524;57.650;11.926;2023-04-25T02:39:25;9.50;99.90
16814;DHT22;8524;57.650;11.926;2023-04-25T02:41:52;9.50;99.90
16814;DHT22;8524;57.650;11.926;2023-04-25T02:44:20;9.60;99.90
16814;DHT22;8524;57.650;11.926;2023-04-25T02:46:47;9.60;99.90
16814;DHT22;8524;57.650;11.926;2023-04-25T02:49:15;9.60;99.90
16814;DHT22;8524;57.650;11.926;2023-04-25T02:51:42;9.60;99.90
16814;DHT22;8524;57.650;11.926;2023-04-25T02:54:09;9.50;99.90
16814;DHT22;8524;57.650;11.926;2023-04-25T02:56:36;9.50;99.90
16814;DHT22;8524;57.650;11.926;2023-04-25T02:59:03;9.50;99.90
16814;DHT22;8524;57.650;11.926;2023-04-25T03:01:30;9.50;99.90
16814;DHT22;8524;57.650;11.926;2023-04-25T03:03:57;9.60;99.90
16814;DHT22;8524;57.650;11.926;2023-04-25T03:06:25;9.60;99.90
16814;DHT22;8524;57.650;11.926;2023-04-25T03:08:52;9.50;99.90
16814;DHT22;8524;57.650;11.926;2023-04-25T03:11:20;9.50;99.90
16814;DHT22;8524;57.650;11.926;2023-04-25T03:13:47;9.50;99.90
16814;DHT22;8524;57.650;11.926;2023-04-25T03:16:14;9.60;99.90
16814;DHT22;8524;57.650;11.926;2023-04-25T03:18:41;9.50;99.90
16814;DHT22;8524;57.650;11.926;2023-04-25T03:21:08;9.50;99.90
16814;DHT22;8524;57.650;11.926;2023-04-25T03:23:36;9.50;99.90
16814;DHT22;8524;57.650;11.926;2023-04-25T03:26:03;9.50;99.90
16814;DHT22;8524;57.650;11.926;2023-04-25T03:28:30;9.50;99.90
16814;DHT22;8524;57.650;11.926;2023-04-25T03:30:57;9.50;99.90
16814;DHT22;8524;57.650;11.926;2023-04-25T03:33:24;9.50;99.90
16814;DHT22;8524;57.650;11.926;2023-04-25T03:35:51;9.50;99.90
16814;DHT22;8524;57.650;11.926;2023-04-25T03:38:18;9.50;99.90
16814;DHT22;8524;57.650;11.926;2023-04-25T03:40:47;9.50;99.90
16814;DHT22;8524;57.650;11.926;2023-04-25T03:43:14;9.40;99.90
16814;DHT22;8524;57.650;11.926;2023-04-25T03:45:41;9.50;99.90
16814;DHT22;8524;57.650;11.926;2023-04-25T03:48:08;9.50;99.90
16814;DHT22;8524;57.650;11.926;2023-04-25T03:50:35;9.50;99.90
16814;DHT22;8524;57.650;11.926;2023-04-25T03:53:02;9.60;99.90
16814;DHT22;8524;57.650;11.926;2023-04-25T03:55:29;9.60;99.90
16814;DHT22;8524;57.650;11.926;2023-04-25T03:57:58;9.60;99.90
16814;DHT22;8524;57.650;11.926;2023-04-25T04:00:26;9.60;99.90
16814;DHT22;8524;57.650;11.926;2023-04-25T04:02:53;9.70;99.90
16814;DHT22;8524;57.650;11.926;2023-04-25T04:05:20;9.70;99.90
16814;DHT22;8524;57.650;11.926;2023-04-25T04:07:47;9.60;99.90
16814;DHT22;8524;57.650;11.926;2023-04-25T04:10:15;9.60;99.90
16814;DHT22;8524;57.650;11.926;2023-04-25T04:12:42;9.70;99.90
16814;DHT22;8524;57.650;11.926;2023-04-25T04:15:11;9.70;99.90
16814;DHT22;8524;57.650;11.926;2023-04-25T04:17:38;9.70;99.90
16814;DHT22;8524;57.650;11.926;2023-04-25T04:20:07;9.70;99.90
16814;DHT22;8524;57.650;11.926;2023-04-25T04:22:34;9.70;99.90
16814;DHT22;8524;57.650;11.926;2023-04-25T04:25:02;9.60;99.90
16814;DHT22;8524;57.650;11.926;2023-04-25T04:27:31;9.60;99.90
16814;DHT22;8524;57.650;11.926;2023-04-25T04:29:58;9.70;99.90
16814;DHT22;8524;57.650;11.926;2023-04-25T04:32:27;9.70;99.90
16814;DHT22;8524;57.650;11.926;2023-04-25T04:34:56;9.60;99.90
16814;DHT22;8524;57.650;11.926;2023-04-25T04:37:23;9.60;99.90
16814;DHT22;8524;57.650;11.926;2023-04-25T04:39:50;9.60;99.90
16814;DHT22;8524;57.650;11.926;2023-04-25T04:42:17;9.60;99.90
16814;DHT22;8524;57.650;11.926;2023-04-25T04:44:44;9.50;99.90
16814;DHT22;8524;57.650;11.926;2023-04-25T04:47:12;9.50;99.90
16814;DHT22;8524;57.650;11.926;2023-04-25T04:49:41;9.50;99.90
16814;DHT22;8524;57.650;11.926;2023-04-25T04:52:08;9.50;99.90
16814;DHT22;8524;57.650;11.926;2023-04-25T04:54:35;9.60;99.90
16814;DHT22;8524;57.650;11.926;2023-04-25T04:57:02;9.60;99.90
16814;DHT22;8524;57.650;11.926;2023-04-25T04:59:29;9.60;99.90
16814;DHT22;8524;57.650;11.926;2023-04-25T05:01:56;9.70;99.90
16814;DHT22;8524;57.650;11.926;2023-04-25T05:04:23;9.70;99.90
16814;DHT22;8524;57.650;11.926;2023-04-25T05:06:51;9.70;99.90
16814;DHT22;8524;57.650;11.926;2023-04-25T05:09:18;9.60;99.90
16814;DHT22;8524;57.650;11.926;2023-04-25T05:11:45;9.60;99.90
16814;DHT22;8524;57.650;11.926;2023-04-25T05:14:12;9.60;99.90
16814;DHT22;8524;57.650;11.926;2023-04-25T05:16:39;9.60;99.90
16814;DHT22;8524;57.650;11.926;2023-04-25T05:19:06;9.60;99.90
16814;DHT22;8524;57.650;11.926;2023-04-25T05:21:33;9.70;99.90
16814;DHT22;8524;57.650;11.926;2023-04-25T05:24:02;9.60;99.90
16814;DHT22;8524;57.650;11.926;2023-04-25T05:26:29;9.60;99.90
16814;DHT22;8524;57.650;11.926;2023-04-25T05:28:57;9.60;99.90
16814;DHT22;8524;57.650;11.926;2023-04-25T05:31:24;9.60;99.90
16814;DHT22;8524;57.650;11.926;2023-04-25T05:33:51;9.60;99.90
16814;DHT22;8524;57.650;11.926;2023-04-25T05:36:18;9.50;99.90
16814;DHT22;8524;57.650;11.926;2023-04-25T05:38:45;9.50;99.90
16814;DHT22;8524;57.650;11.926;2023-04-25T05:41:14;9.50;99.90
16814;DHT22;8524;57.650;11.926;2023-04-25T05:43:41;9.50;99.90
16814;DHT22;8524;57.650;11.926;2023-04-25T05:46:12;9.50;99.90
16814;DHT22;8524;57.650;11.926;2023-04-25T05:48:39;9.50;99.90
16814;DHT22;8524;57.650;11.926;2023-04-25T05:51:06;9.50;99.90
16814;DHT22;8524;57.650;11.926;2023-04-25T05:53:33;9.50;99.90
16814;DHT22;8524;57.650;11.926;2023-04-25T05:56:01;9.60;99.90
16814;DHT22;8524;57.650;11.926;2023-04-25T05:58:30;9.50;99.90
16814;DHT22;8524;57.650;11.926;2023-04-25T06:00:57;9.60;99.90
16814;DHT22;8524;57.650;11.926;2023-04-25T06:03:25;9.60;99.90
16814;DHT22;8524;57.650;11.926;2023-04-25T06:05:52;9.50;99.90
16814;DHT22;8524;57.650;11.926;2023-04-25T06:08:19;9.50;99.90
16814;DHT22;8524;57.650;11.926;2023-04-25T06:10:46;9.50;99.90
16814;DHT22;8524;57.650;11.926;2023-04-25T06:13:13;9.50;99.90
16814;DHT22;8524;57.650;11.926;2023-04-25T06:15:42;9.50;99.90
16814;DHT22;8524;57.650;11.926;2023-04-25T06:18:09;9.50;99.90
16814;DHT22;8524;57.650;11.926;2023-04-25T06:20:36;9.50;99.90
16814;DHT22;8524;57.650;11.926;2023-04-25T06:23:03;9.50;99.90
16814;DHT22;8524;57.650;11.926;2023-04-25T06:25:30;9.50;99.90
16814;DHT22;8524;57.650;11.926;2023-04-25T06:27:57;9.50;99.90
16814;DHT22;8524;57.650;11.926;2023-04-25T06:30:25;9.50;99.90
16814;DHT22;8524;57.650;11.926;2023-04-25T06:32:53;9.50;99.90
16814;DHT22;8524;57.650;11.926;2023-04-25T06:35:20;9.60;99.90
16814;DHT22;8524;57.650;11.926;2023-04-25T06:37:47;9.50;99.90
16814;DHT22;8524;57.650;11.926;2023-04-25T06:40:14;9.50;99.90
16814;DHT22;8524;57.650;11.926;2023-04-25T06:42:43;9.40;99.90
16814;DHT22;8524;57.650;11.926;2023-04-25T06:45:12;9.40;99.90
16814;DHT22;8524;57.650;11.926;2023-04-25T06:47:39;9.40;99.90
16814;DHT22;8524;57.650;11.926;2023-04-25T06:50:08;9.40;99.90
16814;DHT22;8524;57.650;11.926;2023-04-25T06:52:36;9.40;99.90
16814;DHT22;8524;57.650;11.926;2023-04-25T06:55:04;9.40;99.90
16814;DHT22;8524;57.650;11.926;2023-04-25T06:57:31;9.40;99.90
16814;DHT22;8524;57.650;11.926;2023-04-25T06:59:58;9.40;99.90
16814;DHT22;8524;57.650;11.926;2023-04-25T07:02:25;9.40;99.90
16814;DHT22;8524;57.650;11.926;2023-04-25T07:04:52;9.50;99.90
16814;DHT22;8524;57.650;11.926;2023-04-25T07:07:23;9.50;99.90
16814;DHT22;8524;57.650;11.926;2023-04-25T07:09:50;9.40;99.90
16814;DHT22;8524;57.650;11.926;2023-04-25T07:12:17;9.40;99.90
16814;DHT22;8524;57.650;11.926;2023-04-25T07:14:44;9.30;99.90
16814;DHT22;8524;57.650;11.926;2023-04-25T07:17:12;9.20;99.90
16814;DHT22;8524;57.650;11.926;2023-04-25T07:19:39;9.20;99.90
16814;DHT22;8524;57.650;11.926;2023-04-25T07:22:06;9.20;99.90
16814;DHT22;8524;57.650;11.926;2023-04-25T07:24:35;9.20;99.90
16814;DHT22;8524;57.650;11.926;2023-04-25T07:27:02;9.20;99.90
16814;DHT22;8524;57.650;11.926;2023-04-25T07:29:29;9.20;99.90
16814;DHT22;8524;57.650;11.926;2023-04-25T07:31:57;9.20;99.90
16814;DHT22;8524;57.650;11.926;2023-04-25T07:34:24;9.30;99.90
16814;DHT22;8524;57.650;11.926;2023-04-25T07:36:51;9.30;99.90
16814;DHT22;8524;57.650;11.926;2023-04-25T07:39:19;9.40;99.90
16814;DHT22;8524;57.650;11.926;2023-04-25T07:41:48;9.40;99.90
16814;DHT22;8524;57.650;11.926;2023-04-25T07:44:15;9.40;99.90
16814;DHT22;8524;57.650;11.926;2023-04-25T07:46:42;9.40;99.90
16814;DHT22;8524;57.650;11.926;2023-04-25T07:49:09;9.40;99.90
16814;DHT22;8524;57.650;11.926;2023-04-25T07:51:36;9.40;99.90
16814;DHT22;8524;57.650;11.926;2023-04-25T07:54:03;9.30;99.90
16814;DHT22;8524;57.650;11.926;2023-04-25T07:56:31;9.30;99.90
16814;DHT22;8524;57.650;11.926;2023-04-25T07:58:59;9.20;99.90
16814;DHT22;8524;57.650;11.926;2023-04-25T08:01:26;9.30;99.90
16814;DHT22;8524;57.650;11.926;2023-04-25T08:03:53;9.30;99.90
16814;DHT22;8524;57.650;11.926;2023-04-25T08:06:20;9.30;99.90
16814;DHT22;8524;57.650;11.926;2023-04-25T08:08:47;9.20;99.90
16814;DHT22;8524;57.650;11.926;2023-04-25T08:11:15;9.20;99.90
16814;DHT22;8524;57.650;11.926;2023-04-25T08:13:42;9.10;99.90
16814;DHT22;8524;57.650;11.926;2023-04-25T08:16:10;9.20;99.90
16814;DHT22;8524;57.650;11.926;2023-04-25T08:18:37;9.20;99.90
16814;DHT22;8524;57.650;11.926;2023-04-25T08:21:04;9.20;99.90
16814;DHT22;8524;57.650;11.926;2023-04-25T08:23:32;9.20;99.90
16814;DHT22;8524;57.650;11.926;2023-04-25T08:25:59;9.20;99.90
16814;DHT22;8524;57.650;11.926;2023-04-25T08:28:26;9.20;99.90
16814;DHT22;8524;57.650;11.926;2023-04-25T08:30:53;9.20;99.90
16814;DHT22;8524;57.650;11.926;2023-04-25T08:33:22;9.20;99.90
16814;DHT22;8524;57.650;11.926;2023-04-25T08:35:49;9.20;99.90
16814;DHT22;8524;57.650;11.926;2023-04-25T08:38:17;9.30;99.90
16814;DHT22;8524;57.650;11.926;2023-04-25T08:40:49;9.40;99.90
16814;DHT22;8524;57.650;11.926;2023-04-25T08:43:18;9.40;99.90
16814;DHT22;8524;57.650;11.926;2023-04-25T08:45:46;9.40;99.90
16814;DHT22;8524;57.650;11.926;2023-04-25T08:48:15;9.60;99.90
16814;DHT22;8524;57.650;11.926;2023-04-25T08:50:48;9.70;99.90
16814;DHT22;8524;57.650;11.926;2023-04-25T08:53:18;9.70;99.90
16814;DHT22;8524;57.650;11.926;2023-04-25T08:55:48;9.80;99.90
16814;DHT22;8524;57.650;11.926;2023-04-25T08:58:18;9.80;99.90
16814;DHT22;8524;57.650;11.926;2023-04-25T09:00:46;10.00;99.90
16814;DHT22;8524;57.650;11.926;2023-04-25T09:03:13;10.10;99.90
16814;DHT22;8524;57.650;11.926;2023-04-25T09:05:41;10.30;99.90
16814;DHT22;8524;57.650;11.926;2023-04-25T09:08:09;10.20;99.90
16814;DHT22;8524;57.650;11.926;2023-04-25T09:10:37;10.20;99.90
16814;DHT22;8524;57.650;11.926;2023-04-25T09:13:08;10.20;99.90
16814;DHT22;8524;57.650;11.926;2023-04-25T09:15:48;10.30;99.90
16814;DHT22;8524;57.650;11.926;2023-04-25T09:18:22;10.20;99.90
16814;DHT22;8524;57.650;11.926;2023-04-25T09:20:52;10.20;99.90
16814;DHT22;8524;57.650;11.926;2023-04-25T09:23:21;10.10;99.90
16814;DHT22;8524;57.650;11.926;2023-04-25T09:25:50;10.10;99.90
16814;DHT22;8524;57.650;11.926;2023-04-25T09:28:23;10.00;99.90
16814;DHT22;8524;57.650;11.926;2023-04-25T09:30:55;10.10;99.90
16814;DHT22;8524;57.650;11.926;2023-04-25T09:33:28;10.10;99.90
16814;DHT22;8524;57.650;11.926;2023-04-25T09:36:02;10.20;99.90
16814;DHT22;8524;57.650;11.926;2023-04-25T09:38:32;10.10;99.90
16814;DHT22;8524;57.650;11.926;2023-04-25T09:41:06;10.20;99.90
16814;DHT22;8524;57.650;11.926;2023-04-25T09:43:33;10.20;99.90
16814;DHT22;8524;57.650;11.926;2023-04-25T09:46:00;10.10;99.90
16814;DHT22;8524;57.650;11.926;2023-04-25T09:48:28;10.10;99.90
16814;DHT22;8524;57.650;11.926;2023-04-25T09:51:06;10.00;99.90
16814;DHT22;8524;57.650;11.926;2023-04-25T09:53:36;10.10;99.90
16814;DHT22;8524;57.650;11.926;2023-04-25T09:56:04;10.10;99.90
16814;DHT22;8524;57.650;11.926;2023-04-25T09:58:32;10.10;99.90
16814;DHT22;8524;57.650;11.926;2023-04-25T10:01:01;10.20;99.90
16814;DHT22;8524;57.650;11.926;2023-04-25T10:03:30;10.20;99.90
16814;DHT22;8524;57.650;11.926;2023-04-25T10:05:59;10.30;99.90
16814;DHT22;8524;57.650;11.926;2023-04-25T10:08:31;10.30;99.90
16814;DHT22;8524;57.650;11.926;2023-04-25T10:11:02;10.40;99.90
16814;DHT22;8524;57.650;11.926;2023-04-25T10:13:30;10.30;99.90
16814;DHT22;8524;57.650;11.926;2023-04-25T10:15:58;10.30;99.90
16814;DHT22;8524;57.650;11.926;2023-04-25T10:18:26;10.20;99.90
16814;DHT22;8524;57.650;11.926;2023-04-25T10:20:55;10.00;99.90
16814;DHT22;8524;57.650;11.926;2023-04-25T10:23:23;10.10;99.90
16814;DHT22;8524;57.650;11.926;2023-04-25T10:25:52;10.20;99.90
16814;DHT22;8524;57.650;11.926;2023-04-25T10:28:21;10.30;99.90
16814;DHT22;8524;57.650;11.926;2023-04-25T10:30:58;10.20;99.90
16814;DHT22;8524;57.650;11.926;2023-04-25T10:33:36;10.30;99.90
16814;DHT22;8524;57.650;11.926;2023-04-25T10:36:11;10.30;99.90
16814;DHT22;8524;57.650;11.926;2023-04-25T10:38:39;10.40;99.90
16814;DHT22;8524;57.650;11.926;2023-04-25T10:41:08;10.40;99.90
16814;DHT22;8524;57.650;11.926;2023-04-25T10:43:40;10.30;99.90
16814;DHT22;8524;57.650;11.926;2023-04-25T10:46:18;10.20;99.90
16814;DHT22;8524;57.650;11.926;2023-04-25T10:48:51;9.90;99.90
16814;DHT22;8524;57.650;11.926;2023-04-25T10:51:23;9.90;99.90
16814;DHT22;8524;57.650;11.926;2023-04-25T10:53:58;9.90;99.90
16814;DHT22;8524;57.650;11.926;2023-04-25T10:56:27;9.80;99.90
16814;DHT22;8524;57.650;11.926;2023-04-25T10:59:06;9.90;99.90
16814;DHT22;8524;57.650;11.926;2023-04-25T11:01:38;9.90;99.90
16814;DHT22;8524;57.650;11.926;2023-04-25T11:04:05;9.70;99.90
16814;DHT22;8524;57.650;11.926;2023-04-25T11:06:43;9.60;99.90
16814;DHT22;8524;57.650;11.926;2023-04-25T11:09:13;9.70;99.90
16814;DHT22;8524;57.650;11.926;2023-04-25T11:11:41;9.70;99.90
16814;DHT22;8524;57.650;11.926;2023-04-25T11:14:09;9.70;99.90
16814;DHT22;8524;57.650;11.926;2023-04-25T11:16:36;9.70;99.90
16814;DHT22;8524;57.650;11.926;2023-04-25T11:19:03;9.50;99.90
16814;DHT22;8524;57.650;11.926;2023-04-25T11:21:31;9.50;99.90
16814;DHT22;8524;57.650;11.926;2023-04-25T11:24:00;9.60;99.90
16814;DHT22;8524;57.650;11.926;2023-04-25T11:26:28;9.70;99.90
16814;DHT22;8524;57.650;11.926;2023-04-25T11:28:59;9.70;99.90
16814;DHT22;8524;57.650;11.926;2023-04-25T11:31:29;9.70;99.90
16814;DHT22;8524;57.650;11.926;2023-04-25T11:33:57;9.70;99.90
16814;DHT22;8524;57.650;11.926;2023-04-25T11:36:24;9.70;99.90
16814;DHT22;8524;57.650;11.926;2023-04-25T11:38:52;9.80;99.90
16814;DHT22;8524;57.650;11.926;2023-04-25T11:41:20;10.00;99.90
16814;DHT22;8524;57.650;11.926;2023-04-25T11:43:48;9.90;99.90
16814;DHT22;8524;57.650;11.926;2023-04-25T11:46:17;10.00;99.90
16814;DHT22;8524;57.650;11.926;2023-04-25T11:48:47;10.10;99.90
16814;DHT22;8524;57.650;11.926;2023-04-25T11:51:16;10.20;99.90
16814;DHT22;8524;57.650;11.926;2023-04-25T11:53:44;10.20;99.90
16814;DHT22;8524;57.650;11.926;2023-04-25T11:56:11;10.20;99.90
16814;DHT22;8524;57.650;11.926;2023-04-25T11:58:55;10.10;99.90
16814;DHT22;8524;57.650;11.926;2023-04-25T12:01:27;10.10;99.90
16814;DHT22;8524;57.650;11.926;2023-04-25T12:03:56;10.10;99.90
16814;DHT22;8524;57.650;11.926;2023-04-25T12:06:26;10.00;99.90
16814;DHT22;8524;57.650;11.926;2023-04-25T12:09:04;9.80;99.90
16814;DHT22;8524;57.650;11.926;2023-04-25T12:11:31;9.80;99.90
16814;DHT22;8524;57.650;11.926;2023-04-25T12:14:03;9.80;99.90
16814;DHT22;8524;57.650;11.926;2023-04-25T12:16:40;9.80;99.90
16814;DHT22;8524;57.650;11.926;2023-04-25T12:19:09;9.80;99.90
16814;DHT22;8524;57.650;11.926;2023-04-25T12:21:36;9.90;99.90
16814;DHT22;8524;57.650;11.926;2023-04-25T12:24:16;10.00;99.90
16814;DHT22;8524;57.650;11.926;2023-04-25T12:26:51;10.00;99.90
16814;DHT22;8524;57.650;11.926;2023-04-25T12:29:19;10.00;99.90
16814;DHT22;8524;57.650;11.926;2023-04-25T12:31:47;10.10;99.90
16814;DHT22;8524;57.650;11.926;2023-04-25T12:34:15;10.10;99.90
16814;DHT22;8524;57.650;11.926;2023-04-25T12:36:42;10.20;99.90
16814;DHT22;8524;57.650;11.926;2023-04-25T12:39:14;10.10;99.90
16814;DHT22;8524;57.650;11.926;2023-04-25T12:41:42;10.00;99.90
16814;DHT22;8524;57.650;11.926;2023-04-25T12:44:10;10.10;99.90
16814;DHT22;8524;57.650;11.926;2023-04-25T12:46:37;10.00;99.90
16814;DHT22;8524;57.650;11.926;2023-04-25T12:49:04;10.10;99.90
16814;DHT22;8524;57.650;11.926;2023-04-25T12:51:34;10.10;99.90
16814;DHT22;8524;57.650;11.926;2023-04-25T12:54:03;10.10;99.90
16814;DHT22;8524;57.650;11.926;2023-04-25T12:56:30;10.10;99.90
16814;DHT22;8524;57.650;11.926;2023-04-25T12:58:58;10.10;99.90
16814;DHT22;8524;57.650;11.926;2023-04-25T13:01:25;9.90;99.90
16814;DHT22;8524;57.650;11.926;2023-04-25T13:03:52;9.70;99.90
16814;DHT22;8524;57.650;11.926;2023-04-25T13:06:20;9.60;99.90
16814;DHT22;8524;57.650;11.926;2023-04-25T13:08:48;9.60;99.90
16814;DHT22;8524;57.650;11.926;2023-04-25T13:11:15;9.60;99.90
16814;DHT22;8524;57.650;11.926;2023-04-25T13:13:43;9.70;99.90
16814;DHT22;8524;57.650;11.926;2023-04-25T13:16:11;9.60;99.90
16814;DHT22;8524;57.650;11.926;2023-04-25T13:18:39;9.50;99.90
16814;DHT22;8524;57.650;11.926;2023-04-25T13:21:09;9.50;99.90
16814;DHT22;8524;57.650;11.926;2023-04-25T13:23:40;9.50;99.90
16814;DHT22;8524;57.650;11.926;2023-04-25T13:26:10;9.50;99.90
16814;DHT22;8524;57.650;11.926;2023-04-25T13:28:37;9.60;99.90
16814;DHT22;8524;57.650;11.926;2023-04-25T13:31:04;9.70;99.90
16814;DHT22;8524;57.650;11.926;2023-04-25T13:33:32;9.50;99.90
16814;DHT22;8524;57.650;11.926;2023-04-25T13:36:01;9.50;99.90
16814;DHT22;8524;57.650;11.926;2023-04-25T13:38:28;9.60;99.90
16814;DHT22;8524;57.650;11.926;2023-04-25T13:40:55;9.60;99.90
16814;DHT22;8524;57.650;11.926;2023-04-25T13:43:23;9.70;99.90
16814;DHT22;8524;57.650;11.926;2023-04-25T13:45:50;9.90;99.90
16814;DHT22;8524;57.650;11.926;2023-04-25T13:48:18;10.10;99.90
16814;DHT22;8524;57.650;11.926;2023-04-25T13:50:45;10.30;99.90
16814;DHT22;8524;57.650;11.926;2023-04-25T13:53:12;10.30;99.90
16814;DHT22;8524;57.650;11.926;2023-04-25T13:55:39;10.10;99.90
16814;DHT22;8524;57.650;11.926;2023-04-25T13:58:06;10.20;99.90
16814;DHT22;8524;57.650;11.926;2023-04-25T14:00:38;10.30;99.90
16814;DHT22;8524;57.650;11.926;2023-04-25T14:03:06;10.60;99.90
16814;DHT22;8524;57.650;11.926;2023-04-25T14:05:34;10.50;99.90
16814;DHT22;8524;57.650;11.926;2023-04-25T14:08:06;10.40;99.90
16814;DHT22;8524;57.650;11.926;2023-04-25T14:10:33;10.20;99.90
16814;DHT22;8524;57.650;11.926;2023-04-25T14:13:01;10.00;99.90
16814;DHT22;8524;57.650;11.926;2023-04-25T14:15:29;10.20;99.90
16814;DHT22;8524;57.650;11.926;2023-04-25T14:17:58;10.20;99.90
16814;DHT22;8524;57.650;11.926;2023-04-25T14:20:25;10.10;99.90
16814;DHT22;8524;57.650;11.926;2023-04-25T14:22:52;9.90;99.90
16814;DHT22;8524;57.650;11.926;2023-04-25T14:25:21;9.90;99.90
16814;DHT22;8524;57.650;11.926;2023-04-25T14:27:49;10.00;99.90
16814;DHT22;8524;57.650;11.926;2023-04-25T14:30:16;9.90;99.90
16814;DHT22;8524;57.650;11.926;2023-04-25T14:32:43;9.90;99.90
16814;DHT22;8524;57.650;11.926;2023-04-25T14:35:13;9.60;99.90
16814;DHT22;8524;57.650;11.926;2023-04-25T14:37:40;9.70;99.90
16814;DHT22;8524;57.650;11.926;2023-04-25T14:40:08;9.70;99.90
16814;DHT22;8524;57.650;11.926;2023-04-25T14:42:38;9.90;99.90
16814;DHT22;8524;57.650;11.926;2023-04-25T14:45:07;9.80;99.90
16814;DHT22;8524;57.650;11.926;2023-04-25T14:47:35;9.70;99.90
16814;DHT22;8524;57.650;11.926;2023-04-25T14:50:03;9.70;99.90
16814;DHT22;8524;57.650;11.926;2023-04-25T14:52:32;9.60;99.90
16814;DHT22;8524;57.650;11.926;2023-04-25T14:54:59;9.50;99.90
16814;DHT22;8524;57.650;11.926;2023-04-25T14:57:30;9.50;99.90
16814;DHT22;8524;57.650;11.926;2023-04-25T14:59:57;9.40;99.90
16814;DHT22;8524;57.650;11.926;2023-04-25T15:02:25;9.40;99.90
16814;DHT22;8524;57.650;11.926;2023-04-25T15:04:53;9.50;99.90
16814;DHT22;8524;57.650;11.926;2023-04-25T15:07:20;9.50;99.90
16814;DHT22;8524;57.650;11.926;2023-04-25T15:09:49;9.60;99.90
16814;DHT22;8524;57.650;11.926;2023-04-25T15:12:16;9.70;99.90
16814;DHT22;8524;57.650;11.926;2023-04-25T15:14:43;9.70;99.90
16814;DHT22;8524;57.650;11.926;2023-04-25T15:17:10;9.50;99.90
16814;DHT22;8524;57.650;11.926;2023-04-25T15:19:39;9.50;99.90
16814;DHT22;8524;57.650;11.926;2023-04-25T15:22:06;9.50;99.90
16814;DHT22;8524;57.650;11.926;2023-04-25T15:24:34;9.60;99.90
16814;DHT22;8524;57.650;11.926;2023-04-25T15:27:02;9.50;99.90
16814;DHT22;8524;57.650;11.926;2023-04-25T15:29:30;9.70;99.90
16814;DHT22;8524;57.650;11.926;2023-04-25T15:31:57;9.30;99.90
16814;DHT22;8524;57.650;11.926;2023-04-25T15:34:24;9.40;99.90
16814;DHT22;8524;57.650;11.926;2023-04-25T15:36:51;9.20;99.90
16814;DHT22;8524;57.650;11.926;2023-04-25T15:39:18;9.30;99.90
16814;DHT22;8524;57.650;11.926;2023-04-25T15:41:45;9.50;99.90
16814;DHT22;8524;57.650;11.926;2023-04-25T15:44:14;9.60;99.90
16814;DHT22;8524;57.650;11.926;2023-04-25T15:46:41;9.70;99.90
16814;DHT22;8524;57.650;11.926;2023-04-25T15:49:10;9.50;99.90